Time;durP1;ratioP1;P1;durP2;ratioP2;P2;SDS_P1;SDS_P2;PMS_P1;PMS_P2;Temp;Humidity;BMP_temperature;BMP_pressure;BME280_temperature;BME280_humidity;BME280_pressure;Samples;Min_cycle;Max_cycle;Signal;HPM_P1;HPM_P2
2022/10/01 00:00:47;;;;;;;1.50;1.40;;;14.10;46.00;;;;;;5012962;28;20412;-69
2022/10/01 00:03:13;;;;;;;1.30;1.10;;;13.80;45.70;;;;;;5013076;28;20184;-70
2022/10/01 00:05:38;;;;;;;1.30;1.00;;;13.90;45.80;;;;;;5013166;28;20405;-69
2022/10/01 00:08:04;;;;;;;1.30;1.10;;;13.60;46.10;;;;;;5013050;28;20809;-70
2022/10/01 00:10:30;;;;;;;1.30;1.10;;;13.90;46.20;;;;;;5013274;28;20264;-70
2022/10/01 00:12:57;;;;;;;1.30;1.10;;;13.60;46.20;;;;;;5012743;28;20251;-70
2022/10/01 00:15:25;;;;;;;1.30;1.00;;;13.50;46.70;;;;;;5011549;28;20791;-70
2022/10/01 00:17:51;;;;;;;1.30;1.00;;;13.40;47.00;;;;;;5012655;28;20939;-69
2022/10/01 00:20:17;;;;;;;1.30;1.10;;;13.60;46.00;;;;;;5011902;28;20408;-69
2022/10/01 00:22:42;;;;;;;1.30;1.10;;;13.60;46.70;;;;;;5012592;28;20919;-70
2022/10/01 00:25:09;;;;;;;1.30;1.10;;;13.50;46.80;;;;;;5012558;28;20209;-70
2022/10/01 00:27:35;;;;;;;1.30;1.00;;;13.60;46.80;;;;;;5012985;28;20268;-70
2022/10/01 00:30:05;;;;;;;1.30;1.00;;;13.50;45.90;;;;;;5011481;28;20429;-70
2022/10/01 00:32:31;;;;;;;1.30;1.10;;;13.50;46.90;;;;;;5012324;28;20778;-70
2022/10/01 00:35:02;;;;;;;1.30;1.10;;;13.50;46.00;;;;;;5012269;28;20181;-69
2022/10/01 00:37:27;;;;;;;1.30;1.00;;;13.50;45.70;;;;;;5012514;28;20467;-70
2022/10/01 00:39:53;;;;;;;1.30;1.10;;;13.60;45.50;;;;;;5012714;28;20582;-69
2022/10/01 00:42:24;;;;;;;1.30;1.00;;;13.40;46.10;;;;;;5012270;28;20189;-69
2022/10/01 00:44:50;;;;;;;1.30;1.00;;;13.30;46.40;;;;;;5012288;28;20219;-69
2022/10/01 00:47:30;;;;;;;1.30;1.10;;;13.20;46.60;;;;;;5012273;28;20598;-69
2022/10/01 00:50:06;;;;;;;1.30;1.10;;;13.20;45.60;;;;;;5012542;28;20411;-69
2022/10/01 00:52:35;;;;;;;1.30;1.10;;;13.10;46.10;;;;;;5011886;28;20188;-71
2022/10/01 00:55:14;;;;;;;1.30;1.10;;;13.50;48.00;;;;;;5012792;28;20412;-69
2022/10/01 00:57:42;;;;;;;1.30;1.10;;;13.10;46.10;;;;;;5012338;28;20296;-69
2022/10/01 01:00:11;;;;;;;1.30;1.10;;;13.40;46.90;;;;;;5012380;28;20771;-70
2022/10/01 01:02:36;;;;;;;1.30;1.00;;;13.10;46.80;;;;;;5011742;28;20173;-69
2022/10/01 01:05:03;;;;;;;1.30;1.17;;;13.30;47.00;;;;;;5010839;28;20454;-70
2022/10/01 01:07:32;;;;;;;1.30;1.08;;;13.20;45.80;;;;;;5009956;28;20233;-69
2022/10/01 01:09:59;;;;;;;1.30;1.10;;;13.10;45.30;;;;;;5011746;28;20209;-69
2022/10/01 01:12:30;;;;;;;1.30;1.00;;;13.00;45.60;;;;;;5011667;28;20266;-69
2022/10/01 01:15:24;;;;;;;1.30;1.10;;;13.00;46.10;;;;;;5011982;28;20177;-69
2022/10/01 01:18:14;;;;;;;1.30;1.00;;;13.00;46.00;;;;;;5012037;28;20301;-69
2022/10/01 01:21:01;;;;;;;1.30;1.00;;;13.00;46.20;;;;;;5010180;28;20185;-69
2022/10/01 01:24:00;;;;;;;1.30;1.00;;;12.90;46.50;;;;;;5003901;28;20162;-69
2022/10/01 01:26:43;;;;;;;1.30;1.10;;;12.90;46.00;;;;;;5011838;28;20193;-71
2022/10/01 01:29:20;;;;;;;1.30;1.10;;;12.80;46.00;;;;;;5011901;28;20582;-69
2022/10/01 01:31:47;;;;;;;1.30;1.00;;;12.70;46.00;;;;;;5011445;28;20172;-70
2022/10/01 01:34:18;;;;;;;1.30;1.02;;;12.70;46.80;;;;;;5011845;28;20169;-70
2022/10/01 01:36:53;;;;;;;1.30;1.10;;;12.60;46.50;;;;;;5010337;28;20247;-69
2022/10/01 01:39:20;;;;;;;1.30;1.10;;;12.80;46.70;;;;;;5011797;28;20478;-69
2022/10/01 01:41:51;;;;;;;1.30;1.10;;;12.60;46.50;;;;;;5011260;28;20232;-69
2022/10/01 01:44:23;;;;;;;1.30;1.10;;;12.80;46.50;;;;;;5011691;28;20154;-69
2022/10/01 01:46:53;;;;;;;1.30;1.10;;;12.70;46.00;;;;;;5011415;28;20215;-69
2022/10/01 01:49:19;;;;;;;1.30;1.10;;;13.10;46.20;;;;;;5011611;28;20158;-69
2022/10/01 01:51:58;;;;;;;1.30;1.10;;;12.70;46.10;;;;;;5011109;28;20189;-69
2022/10/01 01:54:24;;;;;;;1.30;1.00;;;12.80;45.60;;;;;;5011586;28;20482;-69
2022/10/01 01:56:50;;;;;;;1.85;1.52;;;12.70;46.00;;;;;;5011359;28;20229;-69
2022/10/01 01:59:18;;;;;;;1.30;1.10;;;12.90;46.70;;;;;;5011861;28;20250;-69
2022/10/01 02:01:44;;;;;;;1.30;1.20;;;12.70;46.70;;;;;;5011008;28;20176;-70
2022/10/01 02:04:26;;;;;;;1.30;1.00;;;12.50;46.30;;;;;;5013903;28;20191;-70
2022/10/01 02:06:55;;;;;;;1.30;1.20;;;12.90;45.60;;;;;;5015378;28;20447;-70
2022/10/01 02:09:29;;;;;;;1.30;1.08;;;12.60;46.20;;;;;;5015963;28;20179;-71
2022/10/01 02:12:21;;;;;;;1.30;1.10;;;12.90;45.80;;;;;;5014837;28;20158;-70
2022/10/01 02:15:08;;;;;;;1.30;1.10;;;12.70;46.70;;;;;;5013351;28;20427;-70
2022/10/01 02:17:55;;;;;;;1.30;1.02;;;12.80;46.40;;;;;;5015271;28;20206;-70
2022/10/01 02:20:38;;;;;;;1.30;1.15;;;12.90;45.90;;;;;;5015524;28;20168;-69
2022/10/01 02:23:18;;;;;;;1.30;1.10;;;12.90;45.80;;;;;;5014737;28;20153;-69
2022/10/01 02:25:50;;;;;;;1.30;1.10;;;12.90;46.40;;;;;;5015215;28;20422;-68
2022/10/01 02:28:21;;;;;;;1.30;1.10;;;13.00;46.60;;;;;;5015039;28;20194;-68
2022/10/01 02:30:48;;;;;;;1.33;1.13;;;13.10;46.40;;;;;;5014597;28;20181;-69
2022/10/01 02:33:17;;;;;;;1.30;1.10;;;13.20;45.60;;;;;;5014698;28;20664;-68
2022/10/01 02:35:44;;;;;;;1.30;1.00;;;13.20;46.40;;;;;;5015025;28;20458;-69
2022/10/01 02:38:11;;;;;;;1.30;1.13;;;13.40;46.30;;;;;;5014711;28;20212;-68
2022/10/01 02:40:41;;;;;;;1.30;1.10;;;13.40;45.90;;;;;;5015112;28;20412;-69
2022/10/01 02:43:16;;;;;;;1.30;1.10;;;13.80;45.60;;;;;;5012976;28;20420;-69
2022/10/01 02:45:45;;;;;;;1.30;1.10;;;13.30;45.90;;;;;;5014830;28;20779;-68
2022/10/01 02:48:15;;;;;;;1.30;1.00;;;13.50;44.50;;;;;;5014606;28;20456;-69
2022/10/01 02:50:51;;;;;;;1.30;1.00;;;13.80;44.10;;;;;;5013567;28;20896;-69
2022/10/01 02:53:40;;;;;;;1.30;1.10;;;13.70;45.40;;;;;;5013042;28;20438;-69
2022/10/01 02:56:07;;;;;;;1.30;1.03;;;13.70;45.40;;;;;;5014603;28;20895;-69
2022/10/01 02:58:34;;;;;;;1.30;1.10;;;13.60;45.60;;;;;;5014427;28;20455;-69
2022/10/01 03:00:59;;;;;;;1.30;1.00;;;13.90;44.80;;;;;;5014095;28;20903;-69
2022/10/01 03:03:26;;;;;;;1.30;1.00;;;13.80;43.90;;;;;;5016754;28;20273;-69
2022/10/01 03:05:51;;;;;;;1.30;1.10;;;13.90;44.30;;;;;;5018194;28;20169;-69
2022/10/01 03:08:18;;;;;;;1.30;1.00;;;14.10;44.80;;;;;;5017986;28;20503;-69
2022/10/01 03:10:44;;;;;;;1.30;1.00;;;13.70;45.10;;;;;;5014766;28;20169;-70
2022/10/01 03:13:09;;;;;;;1.30;1.10;;;13.70;44.80;;;;;;5012773;28;20939;-69
2022/10/01 03:15:35;;;;;;;1.30;1.10;;;13.60;45.10;;;;;;5014175;28;20723;-71
2022/10/01 03:18:00;;;;;;;1.30;1.13;;;13.90;45.10;;;;;;5014399;28;20213;-69
2022/10/01 03:20:26;;;;;;;1.30;1.10;;;13.80;44.40;;;;;;5014239;28;20181;-71
2022/10/01 03:22:52;;;;;;;1.30;1.00;;;13.70;45.00;;;;;;5013695;28;20220;-69
2022/10/01 03:25:17;;;;;;;1.30;1.20;;;13.70;45.50;;;;;;5013640;28;20169;-69
2022/10/01 03:27:45;;;;;;;1.30;1.10;;;13.70;45.60;;;;;;5013961;28;20272;-69
2022/10/01 03:30:11;;;;;;;1.30;1.10;;;13.80;43.40;;;;;;5014162;28;20170;-69
2022/10/01 03:32:36;;;;;;;1.30;1.20;;;13.80;44.50;;;;;;5013502;28;20412;-69
2022/10/01 03:35:02;;;;;;;1.30;1.10;;;13.90;43.90;;;;;;5013623;28;20311;-69
2022/10/01 03:37:28;;;;;;;1.30;1.00;;;13.80;43.90;;;;;;5013876;28;20205;-69
2022/10/01 03:39:53;;;;;;;1.30;1.10;;;13.80;44.50;;;;;;5013609;28;20169;-69
2022/10/01 03:42:19;;;;;;;1.30;1.07;;;13.80;45.00;;;;;;5013629;28;20172;-69
2022/10/01 03:44:44;;;;;;;1.30;1.10;;;13.60;44.50;;;;;;5013635;28;20177;-69
2022/10/01 03:47:10;;;;;;;1.30;1.00;;;13.60;44.40;;;;;;5013644;28;20583;-69
2022/10/01 03:49:36;;;;;;;1.30;1.10;;;13.80;45.30;;;;;;5013710;28;20177;-69
2022/10/01 03:52:03;;;;;;;1.30;1.10;;;13.80;45.40;;;;;;5013684;28;20272;-70
2022/10/01 03:54:31;;;;;;;1.30;1.10;;;13.70;44.80;;;;;;5012995;28;20495;-69
2022/10/01 03:56:57;;;;;;;1.30;1.20;;;13.70;44.40;;;;;;5013387;28;20890;-69
2022/10/01 03:59:23;;;;;;;1.30;1.10;;;13.80;45.20;;;;;;5012476;28;20563;-69
2022/10/01 04:01:49;;;;;;;1.30;1.20;;;13.70;44.40;;;;;;5012959;28;20436;-69
2022/10/01 04:04:15;;;;;;;1.30;1.10;;;13.60;44.80;;;;;;5011812;28;20448;-69
2022/10/01 04:06:40;;;;;;;1.30;1.10;;;13.60;44.90;;;;;;5013372;28;20189;-70
2022/10/01 04:09:08;;;;;;;1.30;1.10;;;13.70;44.60;;;;;;5013161;28;20213;-69
2022/10/01 04:11:34;;;;;;;1.30;1.00;;;13.70;44.30;;;;;;5012692;28;20166;-69
2022/10/01 04:13:59;;;;;;;1.30;1.10;;;13.80;44.10;;;;;;5012990;28;20423;-69
2022/10/01 04:16:25;;;;;;;1.30;1.10;;;13.70;44.20;;;;;;5013310;28;20802;-69
2022/10/01 04:18:51;;;;;;;1.30;1.00;;;13.70;43.70;;;;;;5013367;28;20208;-69
2022/10/01 04:21:16;;;;;;;1.30;1.00;;;13.60;43.20;;;;;;5012686;28;20178;-71
2022/10/01 04:23:42;;;;;;;1.30;1.20;;;13.70;43.80;;;;;;5012541;28;20177;-70
2022/10/01 04:26:08;;;;;;;1.30;1.10;;;13.70;43.40;;;;;;5012653;28;20169;-69
2022/10/01 04:28:34;;;;;;;1.30;1.10;;;13.80;43.70;;;;;;5012934;28;20563;-69
2022/10/01 04:33:44;;;;;;;1.30;1.07;;;13.90;41.20;;;;;;5012483;28;20435;-69
2022/10/01 04:36:09;;;;;;;1.30;1.00;;;13.90;39.70;;;;;;5012645;28;20448;-69
2022/10/01 04:38:35;;;;;;;1.30;1.10;;;14.00;39.50;;;;;;5012554;28;20452;-70
2022/10/01 04:41:00;;;;;;;1.30;1.10;;;13.80;39.80;;;;;;5011222;28;20239;-68
2022/10/01 04:43:26;;;;;;;1.30;1.10;;;14.00;35.00;;;;;;5012453;28;20169;-69
2022/10/01 04:45:52;;;;;;;1.30;1.00;;;14.40;34.90;;;;;;5012552;28;20173;-70
2022/10/01 04:48:17;;;;;;;1.30;1.10;;;14.30;34.30;;;;;;5012476;28;20218;-70
2022/10/01 04:50:43;;;;;;;1.30;1.10;;;14.30;34.80;;;;;;5012007;28;20177;-70
2022/10/01 04:53:09;;;;;;;1.30;1.03;;;14.40;37.10;;;;;;5012287;28;20223;-70
2022/10/01 04:55:35;;;;;;;1.30;1.10;;;14.70;34.20;;;;;;5011046;28;20420;-70
2022/10/01 04:58:00;;;;;;;1.30;1.10;;;14.70;32.40;;;;;;5012130;28;20200;-70
2022/10/01 05:00:26;;;;;;;1.30;1.20;;;14.90;33.70;;;;;;5011583;28;20176;-69
2022/10/01 05:02:52;;;;;;;1.30;1.10;;;15.00;33.90;;;;;;5010456;28;20216;-69
2022/10/01 05:05:21;;;;;;;1.30;1.10;;;14.80;32.70;;;;;;5010480;28;20177;-69
2022/10/01 05:07:47;;;;;;;1.30;1.13;;;14.60;33.60;;;;;;5011094;28;20440;-69
2022/10/01 05:10:18;;;;;;;1.30;1.10;;;14.50;33.00;;;;;;5010982;28;20504;-70
2022/10/01 05:12:45;;;;;;;1.30;1.00;;;14.80;31.70;;;;;;5008553;28;20420;-71
2022/10/01 05:15:11;;;;;;;1.30;1.10;;;15.00;32.20;;;;;;5010848;28;20970;-70
2022/10/01 05:17:37;;;;;;;1.30;1.10;;;14.80;32.30;;;;;;5010651;28;20451;-70
2022/10/01 05:20:04;;;;;;;1.30;1.20;;;14.60;33.20;;;;;;5009175;28;20464;-70
2022/10/01 05:22:30;;;;;;;1.30;1.20;;;14.70;32.20;;;;;;5010358;28;20259;-69
2022/10/01 05:24:57;;;;;;;1.30;1.10;;;15.00;31.80;;;;;;5011386;28;20423;-70
2022/10/01 05:27:23;;;;;;;1.30;1.10;;;15.10;31.60;;;;;;5012082;28;20435;-70
2022/10/01 05:29:49;;;;;;;1.30;1.10;;;15.20;32.60;;;;;;5011913;28;20408;-70
2022/10/01 05:32:15;;;;;;;1.30;1.10;;;15.00;31.20;;;;;;5011474;28;20602;-70
2022/10/01 05:34:41;;;;;;;1.30;1.10;;;15.20;30.90;;;;;;5011326;28;20489;-69
2022/10/01 05:37:07;;;;;;;1.30;1.07;;;14.70;30.70;;;;;;5011060;28;20465;-69
2022/10/01 05:39:32;;;;;;;1.30;1.20;;;14.70;33.60;;;;;;5011358;28;20174;-70
2022/10/01 05:41:58;;;;;;;1.30;1.20;;;14.60;31.70;;;;;;5011416;28;20192;-70
2022/10/01 05:44:24;;;;;;;1.30;1.10;;;14.70;31.10;;;;;;5010097;28;20228;-70
2022/10/01 05:46:51;;;;;;;1.30;1.20;;;14.70;31.70;;;;;;5011409;28;20448;-70
2022/10/01 05:49:17;;;;;;;1.30;1.20;;;15.00;31.20;;;;;;5011858;28;20413;-70
2022/10/01 05:51:43;;;;;;;1.30;1.20;;;15.00;30.50;;;;;;5011171;28;20422;-69
2022/10/01 05:54:10;;;;;;;1.30;1.20;;;14.90;31.30;;;;;;5011474;28;20257;-70
2022/10/01 05:56:35;;;;;;;1.30;1.17;;;14.90;30.60;;;;;;5009953;28;20476;-70
2022/10/01 05:59:01;;;;;;;1.30;1.20;;;14.80;31.20;;;;;;5011704;28;20433;-69
2022/10/01 06:01:27;;;;;;;1.30;1.30;;;15.40;32.50;;;;;;5011100;28;20177;-69
2022/10/01 06:03:53;;;;;;;1.30;1.20;;;15.20;30.20;;;;;;5011289;28;20556;-70
2022/10/01 06:06:25;;;;;;;1.30;1.10;;;15.20;30.80;;;;;;5011578;28;20175;-70
2022/10/01 06:08:51;;;;;;;1.30;1.10;;;15.20;30.40;;;;;;5011393;28;20266;-70
2022/10/01 06:11:17;;;;;;;1.30;1.10;;;15.00;31.00;;;;;;5011126;28;20412;-69
2022/10/01 06:13:45;;;;;;;1.30;1.10;;;14.80;30.90;;;;;;5011174;28;20473;-70
2022/10/01 06:16:14;;;;;;;1.30;1.03;;;14.70;31.40;;;;;;5011209;28;20635;-70
2022/10/01 06:18:40;;;;;;;1.30;1.30;;;15.10;30.90;;;;;;5011120;28;20490;-69
2022/10/01 06:21:07;;;;;;;1.30;1.10;;;15.20;31.60;;;;;;5011017;28;20415;-70
2022/10/01 06:23:33;;;;;;;1.30;1.20;;;15.20;29.90;;;;;;5011241;28;20402;-70
2022/10/01 06:26:00;;;;;;;1.30;1.20;;;15.30;30.30;;;;;;5011007;28;20407;-70
2022/10/01 06:28:26;;;;;;;1.30;1.10;;;15.20;30.60;;;;;;5009981;28;20245;-68
2022/10/01 06:30:52;;;;;;;1.30;1.13;;;15.30;30.20;;;;;;5011088;28;20413;-70
2022/10/01 06:33:18;;;;;;;1.30;1.10;;;15.10;31.10;;;;;;5011370;28;20176;-70
2022/10/01 06:35:49;;;;;;;1.30;1.20;;;15.30;31.20;;;;;;5011161;28;20637;-69
2022/10/01 06:38:18;;;;;;;1.30;1.10;;;15.40;32.90;;;;;;5011164;28;20450;-70
2022/10/01 06:40:49;;;;;;;1.30;1.03;;;15.60;33.70;;;;;;5009518;28;20464;-70
2022/10/01 06:43:15;;;;;;;1.30;1.20;;;15.60;34.40;;;;;;5011440;28;20495;-70
2022/10/01 06:45:41;;;;;;;1.30;1.20;;;15.20;34.40;;;;;;5011074;28;21032;-69
2022/10/01 06:48:13;;;;;;;1.30;1.07;;;14.90;35.10;;;;;;5011203;28;20207;-70
2022/10/01 06:50:39;;;;;;;1.30;1.20;;;15.20;36.40;;;;;;5014398;28;20492;-70
2022/10/01 06:53:05;;;;;;;1.30;1.10;;;15.50;34.10;;;;;;5014124;28;20440;-70
2022/10/01 06:55:33;;;;;;;1.30;1.17;;;15.40;35.00;;;;;;5014524;28;20440;-69
2022/10/01 06:58:03;;;;;;;1.30;1.10;;;15.40;36.30;;;;;;5014674;28;20217;-70
2022/10/01 07:00:31;;;;;;;1.30;1.20;;;15.40;37.40;;;;;;5014386;28;20772;-69
2022/10/01 07:02:57;;;;;;;1.30;1.10;;;15.30;39.10;;;;;;5014172;28;20413;-70
2022/10/01 07:05:23;;;;;;;1.30;1.10;;;15.00;38.90;;;;;;5014391;28;20405;-70
2022/10/01 07:07:49;;;;;;;1.30;1.20;;;14.90;38.00;;;;;;5014082;28;20437;-70
2022/10/01 07:10:19;;;;;;;1.30;1.20;;;14.90;38.20;;;;;;5014445;28;20471;-69
2022/10/01 07:12:47;;;;;;;1.30;1.20;;;14.80;40.60;;;;;;5013850;28;20173;-69
2022/10/01 07:15:14;;;;;;;1.30;1.10;;;14.90;40.20;;;;;;5012792;28;20424;-70
2022/10/01 07:17:48;;;;;;;1.30;1.00;;;14.50;40.60;;;;;;5013987;28;20458;-70
2022/10/01 07:20:16;;;;;;;1.30;1.10;;;14.70;39.70;;;;;;5014530;28;20403;-70
2022/10/01 07:22:42;;;;;;;1.30;1.10;;;15.10;39.40;;;;;;5013496;28;20808;-71
2022/10/01 07:25:09;;;;;;;1.30;1.10;;;15.50;42.30;;;;;;5014158;28;20967;-70
2022/10/01 07:27:35;;;;;;;1.30;1.20;;;15.40;42.70;;;;;;5014041;28;20455;-70
2022/10/01 07:30:01;;;;;;;1.30;1.10;;;15.40;42.60;;;;;;5014058;28;20412;-70
2022/10/01 07:32:29;;;;;;;1.30;1.13;;;15.40;39.50;;;;;;5013415;28;20511;-71
2022/10/01 07:34:54;;;;;;;1.30;1.10;;;15.50;38.20;;;;;;5013704;28;20413;-70
2022/10/01 07:37:20;;;;;;;1.30;1.10;;;15.50;40.90;;;;;;5013584;28;20461;-70
2022/10/01 07:39:46;;;;;;;1.30;1.10;;;15.60;40.80;;;;;;5013081;28;20174;-70
2022/10/01 07:42:11;;;;;;;1.30;1.10;;;15.50;40.80;;;;;;5013378;28;20207;-70
2022/10/01 07:44:37;;;;;;;1.30;1.20;;;15.20;37.20;;;;;;5012394;28;20592;-70
2022/10/01 07:47:02;;;;;;;1.30;1.10;;;15.00;37.00;;;;;;5013620;28;20218;-70
2022/10/01 07:49:28;;;;;;;1.30;1.10;;;14.60;35.60;;;;;;5013679;28;20253;-70
2022/10/01 07:51:54;;;;;;;1.30;1.10;;;14.30;34.80;;;;;;5010176;28;20182;-70
2022/10/01 07:54:23;;;;;;;1.30;1.10;;;14.60;36.00;;;;;;5013025;28;20201;-70
2022/10/01 07:56:51;;;;;;;1.30;1.00;;;15.10;33.90;;;;;;5013296;28;20486;-70
2022/10/01 07:59:17;;;;;;;1.30;1.10;;;15.20;34.00;;;;;;5013429;28;20428;-70
2022/10/01 08:01:43;;;;;;;1.30;1.10;;;15.40;33.20;;;;;;5012521;28;20409;-71
2022/10/01 08:06:53;;;;;;;1.30;1.10;;;15.60;33.40;;;;;;5013263;28;20197;-70
2022/10/01 08:09:19;;;;;;;1.30;1.20;;;15.40;33.80;;;;;;5013144;28;20409;-70
2022/10/01 08:11:46;;;;;;;1.30;1.20;;;15.20;34.00;;;;;;5012868;28;20170;-70
2022/10/01 08:14:13;;;;;;;1.30;1.13;;;14.70;34.70;;;;;;5013026;28;20913;-69
2022/10/01 08:16:39;;;;;;;1.30;1.27;;;15.00;34.50;;;;;;5012872;28;20949;-70
2022/10/01 08:19:08;;;;;;;1.30;1.20;;;15.30;35.70;;;;;;5012899;28;20776;-70
2022/10/01 08:21:37;;;;;;;1.30;1.07;;;15.00;35.20;;;;;;5012621;28;20496;-70
2022/10/01 08:24:03;;;;;;;1.30;1.10;;;14.30;35.90;;;;;;5012322;28;20930;-69
2022/10/01 08:26:29;;;;;;;1.30;1.20;;;14.20;37.30;;;;;;5012908;28;20432;-70
2022/10/01 08:28:55;;;;;;;1.30;1.13;;;14.60;36.70;;;;;;5012927;28;20415;-70
2022/10/01 08:31:21;;;;;;;1.30;1.07;;;14.60;37.60;;;;;;5012582;28;20174;-70
2022/10/01 08:33:46;;;;;;;1.30;1.10;;;14.40;36.30;;;;;;5012073;28;20569;-69
2022/10/01 08:36:12;;;;;;;1.30;1.20;;;14.70;36.90;;;;;;5012815;28;20271;-69
2022/10/01 08:38:39;;;;;;;1.30;1.10;;;14.80;35.70;;;;;;5012611;28;20636;-69
2022/10/01 08:41:23;;;;;;;1.30;1.10;;;14.80;35.40;;;;;;5012386;28;20634;-69
2022/10/01 08:43:50;;;;;;;1.30;1.10;;;14.70;36.10;;;;;;5012235;28;20406;-69
2022/10/01 08:46:19;;;;;;;1.30;1.10;;;14.80;35.90;;;;;;5011897;28;20401;-69
2022/10/01 08:48:55;;;;;;;1.30;1.10;;;14.90;36.20;;;;;;5012373;28;20860;-69
2022/10/01 08:51:26;;;;;;;1.30;1.10;;;15.30;35.70;;;;;;5012315;28;20412;-69
2022/10/01 08:54:08;;;;;;;1.30;1.10;;;15.40;37.10;;;;;;5012202;28;20401;-69
2022/10/01 08:56:39;;;;;;;1.30;1.10;;;14.50;36.80;;;;;;5010792;28;20517;-70
2022/10/01 08:59:27;;;;;;;1.30;1.10;;;14.90;36.90;;;;;;5012464;28;20489;-69
2022/10/01 09:01:55;;;;;;;1.30;1.20;;;15.00;36.10;;;;;;5011957;28;20394;-69
2022/10/01 09:04:20;;;;;;;1.30;1.20;;;15.60;35.80;;;;;;5010844;28;20424;-69
2022/10/01 09:06:53;;;;;;;1.30;1.10;;;15.20;35.00;;;;;;5010596;28;20448;-69
2022/10/01 09:09:39;;;;;;;1.30;1.10;;;15.20;37.20;;;;;;5012275;28;20636;-69
2022/10/01 09:12:30;;;;;;;1.30;1.10;;;15.40;36.30;;;;;;5011702;28;20537;-69
2022/10/01 09:15:10;;;;;;;1.30;1.10;;;15.20;37.70;;;;;;5011935;28;20403;-69
2022/10/01 09:18:06;;;;;;;1.30;1.10;;;14.60;36.70;;;;;;5011853;28;20556;-70
2022/10/01 09:20:38;;;;;;;1.30;1.10;;;14.40;37.90;;;;;;5011887;28;20836;-69
2022/10/01 09:23:18;;;;;;;1.30;1.10;;;14.60;37.60;;;;;;5010413;28;20453;-68
2022/10/01 09:25:49;;;;;;;1.30;1.20;;;14.60;37.00;;;;;;5010304;28;20451;-69
2022/10/01 09:28:30;;;;;;;1.30;1.10;;;14.70;36.70;;;;;;5010127;28;20877;-68
2022/10/01 09:31:02;;;;;;;1.30;1.13;;;15.00;35.90;;;;;;5007330;28;20433;-69
2022/10/01 09:33:36;;;;;;;1.30;1.20;;;14.70;36.70;;;;;;5011564;28;20925;-70
2022/10/01 09:36:25;;;;;;;1.30;1.20;;;14.70;37.90;;;;;;5011379;28;20438;-69
2022/10/01 09:39:00;;;;;;;1.30;1.10;;;14.80;36.80;;;;;;5011716;28;21110;-69
2022/10/01 09:41:26;;;;;;;1.30;1.10;;;14.90;36.90;;;;;;5009586;28;20446;-70
2022/10/01 09:43:51;;;;;;;1.30;1.30;;;15.40;35.40;;;;;;5011294;28;20451;-69
2022/10/01 09:46:18;;;;;;;1.30;1.20;;;15.40;34.70;;;;;;5011287;28;20169;-69
2022/10/01 09:48:56;;;;;;;1.30;1.20;;;15.30;34.80;;;;;;5011276;28;20203;-68
2022/10/01 09:51:27;;;;;;;1.30;1.10;;;15.00;35.70;;;;;;5011391;28;20501;-69
2022/10/01 09:54:25;;;;;;;1.30;1.20;;;14.80;36.00;;;;;;5011312;28;20419;-69
2022/10/01 09:56:58;;;;;;;1.30;1.20;;;14.50;36.60;;;;;;5011356;28;20443;-69
2022/10/01 09:59:33;;;;;;;1.30;1.10;;;14.80;36.80;;;;;;5011677;28;20478;-69
2022/10/01 10:02:02;;;;;;;1.30;1.10;;;15.10;35.70;;;;;;5010693;28;20442;-69
2022/10/01 10:04:28;;;;;;;1.30;1.20;;;15.40;37.00;;;;;;5011418;28;20763;-69
2022/10/01 10:07:04;;;;;;;1.30;1.10;;;14.60;36.60;;;;;;5010173;28;20934;-69
2022/10/01 10:09:33;;;;;;;1.30;1.10;;;14.40;38.70;;;;;;5011271;28;20418;-69
2022/10/01 10:11:59;;;;;;;1.30;1.10;;;14.50;40.20;;;;;;5010723;28;20848;-69
2022/10/01 10:14:34;;;;;;;1.30;1.10;;;14.70;39.50;;;;;;5011243;28;20931;-69
2022/10/01 10:17:06;;;;;;;1.30;1.20;;;14.70;39.50;;;;;;5009982;28;21061;-69
2022/10/01 10:19:32;;;;;;;1.30;1.10;;;14.40;40.60;;;;;;5010025;28;21049;-71
2022/10/01 10:22:10;;;;;;;1.30;1.20;;;14.40;43.00;;;;;;5010682;28;20404;-71
2022/10/01 10:24:36;;;;;;;1.30;1.23;;;14.30;42.90;;;;;;5012983;28;20434;-69
2022/10/01 10:27:05;;;;;;;1.30;1.17;;;14.60;41.70;;;;;;5015132;28;20956;-69
2022/10/01 10:29:32;;;;;;;1.30;1.20;;;14.70;42.10;;;;;;5015176;28;20268;-69
2022/10/01 10:32:02;;;;;;;1.30;1.10;;;14.70;42.90;;;;;;5014825;28;20416;-71
2022/10/01 10:34:41;;;;;;;1.30;1.23;;;14.10;44.80;;;;;;5014709;28;20417;-70
2022/10/01 10:37:19;;;;;;;1.30;1.20;;;14.80;45.00;;;;;;5014529;28;20465;-69
2022/10/01 10:39:50;;;;;;;1.30;1.20;;;14.50;43.90;;;;;;5013823;28;20425;-69
2022/10/01 10:42:17;;;;;;;1.30;1.20;;;14.60;42.90;;;;;;5014366;28;20436;-69
2022/10/01 10:44:47;;;;;;;1.30;1.10;;;14.80;42.30;;;;;;5014651;28;20418;-69
2022/10/01 10:47:15;;;;;;;1.30;1.20;;;15.30;42.70;;;;;;5014719;28;20968;-69
2022/10/01 10:49:54;;;;;;;1.30;1.10;;;15.20;42.50;;;;;;5014760;28;20460;-69
2022/10/01 10:52:35;;;;;;;1.30;1.23;;;15.00;43.20;;;;;;5014411;28;20447;-69
2022/10/01 10:55:22;;;;;;;1.30;1.10;;;14.90;43.20;;;;;;5014295;28;20825;-70
2022/10/01 10:57:48;;;;;;;1.30;1.20;;;14.90;43.70;;;;;;5014588;28;20472;-69
2022/10/01 11:00:20;;;;;;;1.30;1.23;;;14.60;44.60;;;;;;5013447;28;20510;-69
2022/10/01 11:02:56;;;;;;;1.30;1.20;;;15.10;43.90;;;;;;5014013;28;20501;-69
2022/10/01 11:05:30;;;;;;;1.30;1.10;;;15.10;43.00;;;;;;5014738;28;20928;-69
2022/10/01 11:08:03;;;;;;;1.30;1.10;;;15.20;43.20;;;;;;5014786;28;21013;-69
2022/10/01 11:10:42;;;;;;;1.30;1.10;;;15.10;44.10;;;;;;5014416;28;20746;-69
2022/10/01 11:13:24;;;;;;;1.40;1.30;;;15.10;44.10;;;;;;5014355;28;20412;-69
2022/10/01 11:16:02;;;;;;;1.30;1.20;;;15.00;44.70;;;;;;5014188;28;20416;-68
2022/10/01 11:18:36;;;;;;;1.30;1.20;;;14.90;44.70;;;;;;5014026;28;20757;-69
2022/10/01 11:21:05;;;;;;;1.30;1.17;;;15.20;44.20;;;;;;5013764;28;20415;-69
2022/10/01 11:23:58;;;;;;;1.30;1.10;;;15.00;44.70;;;;;;5012902;28;20416;-69
2022/10/01 11:26:52;;;;;;;1.30;1.20;;;14.90;45.70;;;;;;5013774;28;20796;-69
2022/10/01 11:29:42;;;;;;;1.30;1.10;;;15.10;45.00;;;;;;5014280;28;20526;-69
2022/10/01 11:32:36;;;;;;;1.30;1.10;;;15.40;43.90;;;;;;5013545;28;20495;-69
2022/10/01 11:35:14;;;;;;;1.30;1.10;;;15.60;43.60;;;;;;5013214;28;20903;-68
2022/10/01 11:37:40;;;;;;;1.30;1.20;;;15.20;45.00;;;;;;5013341;28;20546;-69
2022/10/01 11:40:30;;;;;;;1.30;1.20;;;15.70;43.40;;;;;;5014110;28;20979;-69
2022/10/01 11:43:01;;;;;;;1.30;1.10;;;15.60;43.30;;;;;;5013080;28;20919;-69
2022/10/01 11:45:31;;;;;;;1.30;1.10;;;15.90;42.40;;;;;;5013625;28;20453;-69
2022/10/01 11:48:06;;;;;;;1.30;1.20;;;15.70;43.80;;;;;;5013470;28;20456;-69
2022/10/01 11:50:39;;;;;;;1.30;1.20;;;15.50;44.20;;;;;;5013746;28;20416;-70
2022/10/01 11:53:05;;;;;;;1.30;1.20;;;15.70;43.90;;;;;;5013174;28;20474;-69
2022/10/01 11:58:53;;;;;;;1.30;1.07;;;15.90;42.90;;;;;;5013495;28;20279;-69
2022/10/01 12:01:42;;;;;;;1.30;1.20;;;16.10;42.50;;;;;;5013099;28;20835;-69
2022/10/01 12:04:25;;;;;;;1.30;1.10;;;16.10;42.30;;;;;;5013152;28;20900;-69
2022/10/01 12:07:02;;;;;;;1.30;1.13;;;15.80;43.60;;;;;;5013085;28;20486;-69
2022/10/01 12:09:49;;;;;;;1.30;1.20;;;16.00;43.30;;;;;;5013511;28;20929;-70
2022/10/01 12:12:39;;;;;;;1.30;1.10;;;16.00;43.00;;;;;;5012697;28;20404;-70
2022/10/01 12:15:22;;;;;;;1.30;1.10;;;15.70;44.30;;;;;;5011757;28;20423;-70
2022/10/01 12:18:09;;;;;;;1.30;1.20;;;15.80;44.10;;;;;;5012997;28;20463;-70
2022/10/01 12:20:43;;;;;;;1.30;1.30;;;15.90;44.20;;;;;;5012980;28;20516;-70
2022/10/01 12:23:16;;;;;;;1.30;1.10;;;16.60;42.00;;;;;;5012805;28;20419;-70
2022/10/01 12:26:00;;;;;;;1.30;1.10;;;16.30;42.70;;;;;;5012991;28;20437;-71
2022/10/01 12:28:50;;;;;;;1.30;1.10;;;16.20;43.20;;;;;;5012909;28;20424;-70
2022/10/01 12:31:31;;;;;;;1.30;1.17;;;16.40;44.80;;;;;;5012383;28;20419;-71
2022/10/01 12:34:06;;;;;;;1.30;1.20;;;16.00;45.60;;;;;;5012510;28;20934;-69
2022/10/01 12:36:55;;;;;;;1.30;1.07;;;15.80;45.80;;;;;;5011639;28;20510;-70
2022/10/01 12:39:50;;;;;;;1.70;1.50;;;15.70;45.10;;;;;;5012739;28;20393;-70
2022/10/01 12:42:21;;;;;;;1.30;1.13;;;15.60;45.10;;;;;;4997301;28;20417;-70
2022/10/01 12:44:55;;;;;;;1.30;1.10;;;16.00;45.20;;;;;;5011157;28;20439;-70
2022/10/01 12:47:52;;;;;;;1.30;1.20;;;16.40;43.60;;;;;;5012169;28;20452;-70
2022/10/01 12:50:51;;;;;;;1.30;1.10;;;16.70;42.80;;;;;;5012776;28;20884;-70
2022/10/01 12:53:37;;;;;;;1.30;1.10;;;16.70;42.30;;;;;;5012084;28;20510;-70
2022/10/01 12:56:16;;;;;;;1.30;1.10;;;16.60;42.10;;;;;;5011116;28;20445;-70
2022/10/01 12:59:13;;;;;;;1.30;1.10;;;16.40;42.60;;;;;;5012241;28;20452;-71
2022/10/01 13:01:57;;;;;;;1.30;1.20;;;16.30;42.50;;;;;;5012104;28;20502;-70
2022/10/01 13:04:30;;;;;;;1.30;1.20;;;16.60;41.50;;;;;;5012073;28;20425;-70
2022/10/01 13:07:02;;;;;;;1.30;1.13;;;16.00;44.80;;;;;;5012295;28;20994;-70
2022/10/01 13:09:49;;;;;;;1.30;1.20;;;16.50;42.80;;;;;;5012112;28;20407;-70
2022/10/01 13:13:00;;;;;;;1.30;1.20;;;16.90;42.30;;;;;;5011757;28;20400;-70
2022/10/01 13:15:36;;;;;;;1.30;1.10;;;16.80;42.00;;;;;;5001690;28;20420;-70
2022/10/01 13:18:13;;;;;;;1.30;1.10;;;16.80;42.60;;;;;;5011833;28;20466;-70